sensor_id;sensor_type;location;lat;lon;timestamp;P1;durP1;ratioP1;P2;durP2;ratioP2
59468;SDS011;45277;52.768;18.262;2024-03-07T00:00:24;25.70;;;13.95;;
59468;SDS011;45277;52.768;18.262;2024-03-07T00:02:15;26.27;;;14.27;;
59468;SDS011;45277;52.768;18.262;2024-03-07T00:03:47;26.73;;;14.32;;
59468;SDS011;45277;52.768;18.262;2024-03-07T00:05:21;24.50;;;13.93;;
59468;SDS011;45277;52.768;18.262;2024-03-07T00:06:55;27.75;;;14.52;;
59468;SDS011;45277;52.768;18.262;2024-03-07T00:08:26;26.63;;;13.75;;
59468;SDS011;45277;52.768;18.262;2024-03-07T00:09:58;24.30;;;13.20;;
59468;SDS011;45277;52.768;18.262;2024-03-07T00:11:29;28.50;;;15.55;;
59468;SDS011;45277;52.768;18.262;2024-03-07T00:13:01;27.42;;;14.57;;
59468;SDS011;45277;52.768;18.262;2024-03-07T00:14:34;28.48;;;14.82;;
59468;SDS011;45277;52.768;18.262;2024-03-07T00:16:05;28.08;;;13.38;;
59468;SDS011;45277;52.768;18.262;2024-03-07T00:17:37;23.33;;;13.40;;
59468;SDS011;45277;52.768;18.262;2024-03-07T00:19:09;28.30;;;14.77;;
59468;SDS011;45277;52.768;18.262;2024-03-07T00:20:41;28.45;;;14.48;;
59468;SDS011;45277;52.768;18.262;2024-03-07T00:22:13;26.35;;;14.13;;
59468;SDS011;45277;52.768;18.262;2024-03-07T00:23:45;26.40;;;14.45;;
59468;SDS011;45277;52.768;18.262;2024-03-07T00:25:16;25.20;;;13.98;;
59468;SDS011;45277;52.768;18.262;2024-03-07T00:26:50;25.08;;;14.35;;
59468;SDS011;45277;52.768;18.262;2024-03-07T00:28:22;28.10;;;15.73;;
59468;SDS011;45277;52.768;18.262;2024-03-07T00:29:53;26.83;;;14.88;;
59468;SDS011;45277;52.768;18.262;2024-03-07T00:31:25;28.88;;;15.82;;
59468;SDS011;45277;52.768;18.262;2024-03-07T00:32:57;27.33;;;14.70;;
59468;SDS011;45277;52.768;18.262;2024-03-07T00:34:29;24.25;;;14.80;;
59468;SDS011;45277;52.768;18.262;2024-03-07T00:36:00;30.98;;;15.57;;
59468;SDS011;45277;52.768;18.262;2024-03-07T00:37:32;24.90;;;14.23;;
59468;SDS011;45277;52.768;18.262;2024-03-07T00:39:03;28.00;;;14.85;;
59468;SDS011;45277;52.768;18.262;2024-03-07T00:40:34;25.50;;;15.48;;
59468;SDS011;45277;52.768;18.262;2024-03-07T00:42:06;26.42;;;14.95;;
59468;SDS011;45277;52.768;18.262;2024-03-07T00:43:38;26.20;;;15.63;;
59468;SDS011;45277;52.768;18.262;2024-03-07T00:45:09;27.00;;;15.18;;
59468;SDS011;45277;52.768;18.262;2024-03-07T00:46:41;31.40;;;16.17;;
59468;SDS011;45277;52.768;18.262;2024-03-07T00:48:12;28.35;;;15.65;;
59468;SDS011;45277;52.768;18.262;2024-03-07T00:49:44;26.85;;;15.43;;
59468;SDS011;45277;52.768;18.262;2024-03-07T00:51:18;25.75;;;15.43;;
59468;SDS011;45277;52.768;18.262;2024-03-07T00:52:50;25.30;;;14.93;;
59468;SDS011;45277;52.768;18.262;2024-03-07T00:54:21;30.50;;;14.27;;
59468;SDS011;45277;52.768;18.262;2024-03-07T00:55:53;27.83;;;15.88;;
59468;SDS011;45277;52.768;18.262;2024-03-07T00:57:25;23.80;;;14.70;;
59468;SDS011;45277;52.768;18.262;2024-03-07T00:58:56;27.17;;;15.27;;
59468;SDS011;45277;52.768;18.262;2024-03-07T01:00:27;29.75;;;15.35;;
59468;SDS011;45277;52.768;18.262;2024-03-07T01:01:59;24.67;;;14.68;;
59468;SDS011;45277;52.768;18.262;2024-03-07T01:03:30;27.08;;;15.30;;
59468;SDS011;45277;52.768;18.262;2024-03-07T01:05:02;29.83;;;16.40;;
59468;SDS011;45277;52.768;18.262;2024-03-07T01:06:38;29.15;;;14.23;;
59468;SDS011;45277;52.768;18.262;2024-03-07T01:08:11;29.73;;;15.15;;
59468;SDS011;45277;52.768;18.262;2024-03-07T01:09:43;27.85;;;15.25;;
59468;SDS011;45277;52.768;18.262;2024-03-07T01:11:14;25.73;;;14.95;;
59468;SDS011;45277;52.768;18.262;2024-03-07T01:12:45;29.48;;;17.63;;
59468;SDS011;45277;52.768;18.262;2024-03-07T01:14:17;29.00;;;15.77;;
59468;SDS011;45277;52.768;18.262;2024-03-07T01:15:48;34.67;;;17.83;;
59468;SDS011;45277;52.768;18.262;2024-03-07T01:17:20;41.03;;;17.95;;
59468;SDS011;45277;52.768;18.262;2024-03-07T01:18:52;34.22;;;16.10;;
59468;SDS011;45277;52.768;18.262;2024-03-07T01:20:23;40.08;;;17.48;;
59468;SDS011;45277;52.768;18.262;2024-03-07T01:21:55;37.90;;;20.80;;
59468;SDS011;45277;52.768;18.262;2024-03-07T01:23:27;41.67;;;21.02;;
59468;SDS011;45277;52.768;18.262;2024-03-07T01:24:59;42.22;;;20.98;;
59468;SDS011;45277;52.768;18.262;2024-03-07T01:26:30;31.33;;;17.88;;
59468;SDS011;45277;52.768;18.262;2024-03-07T01:28:04;38.08;;;18.10;;
59468;SDS011;45277;52.768;18.262;2024-03-07T01:29:37;38.10;;;18.77;;
59468;SDS011;45277;52.768;18.262;2024-03-07T01:31:11;34.72;;;17.23;;
59468;SDS011;45277;52.768;18.262;2024-03-07T01:32:43;32.50;;;15.48;;
59468;SDS011;45277;52.768;18.262;2024-03-07T01:34:15;30.00;;;15.38;;
59468;SDS011;45277;52.768;18.262;2024-03-07T01:35:46;33.03;;;16.90;;
59468;SDS011;45277;52.768;18.262;2024-03-07T01:37:18;35.55;;;16.95;;
59468;SDS011;45277;52.768;18.262;2024-03-07T01:38:49;34.97;;;17.17;;
59468;SDS011;45277;52.768;18.262;2024-03-07T01:40:20;34.60;;;16.20;;
59468;SDS011;45277;52.768;18.262;2024-03-07T01:41:52;40.55;;;17.80;;
59468;SDS011;45277;52.768;18.262;2024-03-07T01:43:23;36.72;;;17.67;;
59468;SDS011;45277;52.768;18.262;2024-03-07T01:44:55;30.75;;;16.50;;
59468;SDS011;45277;52.768;18.262;2024-03-07T01:46:26;34.17;;;16.45;;
59468;SDS011;45277;52.768;18.262;2024-03-07T01:47:59;33.83;;;17.58;;
59468;SDS011;45277;52.768;18.262;2024-03-07T01:49:30;29.05;;;15.75;;
59468;SDS011;45277;52.768;18.262;2024-03-07T01:51:03;33.50;;;17.17;;
59468;SDS011;45277;52.768;18.262;2024-03-07T01:52:35;32.85;;;16.63;;
59468;SDS011;45277;52.768;18.262;2024-03-07T01:54:09;37.03;;;18.23;;
59468;SDS011;45277;52.768;18.262;2024-03-07T01:55:41;31.92;;;17.83;;
59468;SDS011;45277;52.768;18.262;2024-03-07T01:57:15;28.23;;;16.67;;
59468;SDS011;45277;52.768;18.262;2024-03-07T01:58:48;32.15;;;15.93;;
59468;SDS011;45277;52.768;18.262;2024-03-07T02:00:25;32.20;;;16.20;;
59468;SDS011;45277;52.768;18.262;2024-03-07T02:01:57;35.40;;;16.15;;
59468;SDS011;45277;52.768;18.262;2024-03-07T02:03:28;28.63;;;15.70;;
59468;SDS011;45277;52.768;18.262;2024-03-07T02:05:01;27.95;;;15.73;;
59468;SDS011;45277;52.768;18.262;2024-03-07T02:06:33;27.63;;;16.35;;
59468;SDS011;45277;52.768;18.262;2024-03-07T02:08:05;29.33;;;15.75;;
59468;SDS011;45277;52.768;18.262;2024-03-07T02:09:37;35.45;;;16.30;;
59468;SDS011;45277;52.768;18.262;2024-03-07T02:11:09;35.67;;;16.85;;
59468;SDS011;45277;52.768;18.262;2024-03-07T02:12:40;26.42;;;15.68;;
59468;SDS011;45277;52.768;18.262;2024-03-07T02:14:12;29.77;;;16.25;;
59468;SDS011;45277;52.768;18.262;2024-03-07T02:15:43;31.88;;;16.30;;
59468;SDS011;45277;52.768;18.262;2024-03-07T02:17:14;27.50;;;15.27;;
59468;SDS011;45277;52.768;18.262;2024-03-07T02:18:46;36.33;;;16.63;;
59468;SDS011;45277;52.768;18.262;2024-03-07T02:20:18;29.55;;;17.90;;
59468;SDS011;45277;52.768;18.262;2024-03-07T02:21:50;35.20;;;17.40;;
59468;SDS011;45277;52.768;18.262;2024-03-07T02:23:21;30.70;;;16.00;;
59468;SDS011;45277;52.768;18.262;2024-03-07T02:24:53;27.50;;;16.88;;
59468;SDS011;45277;52.768;18.262;2024-03-07T02:26:24;28.60;;;16.85;;
59468;SDS011;45277;52.768;18.262;2024-03-07T02:27:55;29.35;;;16.23;;
59468;SDS011;45277;52.768;18.262;2024-03-07T02:29:27;32.38;;;16.20;;
59468;SDS011;45277;52.768;18.262;2024-03-07T02:30:58;29.48;;;15.85;;
59468;SDS011;45277;52.768;18.262;2024-03-07T02:32:30;28.67;;;16.80;;
59468;SDS011;45277;52.768;18.262;2024-03-07T02:34:01;29.67;;;16.45;;
59468;SDS011;45277;52.768;18.262;2024-03-07T02:35:33;31.17;;;15.43;;
59468;SDS011;45277;52.768;18.262;2024-03-07T02:37:06;31.65;;;17.38;;
59468;SDS011;45277;52.768;18.262;2024-03-07T02:38:39;28.27;;;14.93;;
59468;SDS011;45277;52.768;18.262;2024-03-07T02:40:11;27.55;;;15.23;;
59468;SDS011;45277;52.768;18.262;2024-03-07T02:41:43;26.98;;;15.40;;
59468;SDS011;45277;52.768;18.262;2024-03-07T02:43:14;28.98;;;15.05;;
59468;SDS011;45277;52.768;18.262;2024-03-07T02:44:46;27.60;;;15.38;;
59468;SDS011;45277;52.768;18.262;2024-03-07T02:46:18;29.48;;;15.75;;
59468;SDS011;45277;52.768;18.262;2024-03-07T02:47:50;26.08;;;14.63;;
59468;SDS011;45277;52.768;18.262;2024-03-07T02:49:22;31.92;;;15.60;;
59468;SDS011;45277;52.768;18.262;2024-03-07T02:50:53;29.45;;;14.75;;
59468;SDS011;45277;52.768;18.262;2024-03-07T02:52:25;28.50;;;15.32;;
59468;SDS011;45277;52.768;18.262;2024-03-07T02:53:56;27.25;;;15.55;;
59468;SDS011;45277;52.768;18.262;2024-03-07T02:55:28;34.88;;;17.35;;
59468;SDS011;45277;52.768;18.262;2024-03-07T02:57:00;31.85;;;15.88;;
59468;SDS011;45277;52.768;18.262;2024-03-07T02:58:32;31.05;;;14.13;;
59468;SDS011;45277;52.768;18.262;2024-03-07T03:00:04;29.95;;;14.65;;
59468;SDS011;45277;52.768;18.262;2024-03-07T03:01:44;26.15;;;13.80;;
59468;SDS011;45277;52.768;18.262;2024-03-07T03:03:15;29.25;;;14.55;;
59468;SDS011;45277;52.768;18.262;2024-03-07T03:04:47;31.70;;;15.75;;
59468;SDS011;45277;52.768;18.262;2024-03-07T03:06:18;31.15;;;15.50;;
59468;SDS011;45277;52.768;18.262;2024-03-07T03:07:52;25.30;;;14.65;;
59468;SDS011;45277;52.768;18.262;2024-03-07T03:09:24;23.13;;;12.55;;
59468;SDS011;45277;52.768;18.262;2024-03-07T03:10:55;30.55;;;15.32;;
59468;SDS011;45277;52.768;18.262;2024-03-07T03:12:27;32.50;;;15.30;;
59468;SDS011;45277;52.768;18.262;2024-03-07T03:13:58;27.33;;;16.00;;
59468;SDS011;45277;52.768;18.262;2024-03-07T03:15:30;33.83;;;16.95;;
59468;SDS011;45277;52.768;18.262;2024-03-07T03:17:01;27.83;;;14.88;;
59468;SDS011;45277;52.768;18.262;2024-03-07T03:18:34;30.05;;;16.92;;
59468;SDS011;45277;52.768;18.262;2024-03-07T03:20:05;33.78;;;15.80;;
59468;SDS011;45277;52.768;18.262;2024-03-07T03:21:49;23.67;;;12.18;;
59468;SDS011;45277;52.768;18.262;2024-03-07T03:23:20;26.05;;;13.70;;
59468;SDS011;45277;52.768;18.262;2024-03-07T03:24:52;29.15;;;15.52;;
59468;SDS011;45277;52.768;18.262;2024-03-07T03:26:25;28.27;;;14.95;;
59468;SDS011;45277;52.768;18.262;2024-03-07T03:27:57;32.13;;;16.13;;
59468;SDS011;45277;52.768;18.262;2024-03-07T03:29:28;33.10;;;15.35;;
59468;SDS011;45277;52.768;18.262;2024-03-07T03:31:00;26.02;;;15.13;;
59468;SDS011;45277;52.768;18.262;2024-03-07T03:32:31;27.13;;;13.70;;
59468;SDS011;45277;52.768;18.262;2024-03-07T03:34:02;33.08;;;15.77;;
59468;SDS011;45277;52.768;18.262;2024-03-07T03:35:34;26.20;;;14.27;;
59468;SDS011;45277;52.768;18.262;2024-03-07T03:37:06;37.30;;;16.65;;
59468;SDS011;45277;52.768;18.262;2024-03-07T03:38:39;36.75;;;16.75;;
59468;SDS011;45277;52.768;18.262;2024-03-07T03:40:12;31.17;;;16.35;;
59468;SDS011;45277;52.768;18.262;2024-03-07T03:41:43;34.95;;;18.38;;
59468;SDS011;45277;52.768;18.262;2024-03-07T03:43:15;30.77;;;16.73;;
59468;SDS011;45277;52.768;18.262;2024-03-07T03:44:46;37.40;;;17.05;;
59468;SDS011;45277;52.768;18.262;2024-03-07T03:46:18;29.05;;;16.48;;
59468;SDS011;45277;52.768;18.262;2024-03-07T03:47:49;34.33;;;18.80;;
59468;SDS011;45277;52.768;18.262;2024-03-07T03:49:20;33.33;;;17.92;;
59468;SDS011;45277;52.768;18.262;2024-03-07T03:50:52;32.30;;;17.23;;
59468;SDS011;45277;52.768;18.262;2024-03-07T03:52:24;30.63;;;13.50;;
59468;SDS011;45277;52.768;18.262;2024-03-07T03:53:56;30.83;;;13.90;;
59468;SDS011;45277;52.768;18.262;2024-03-07T03:55:28;34.05;;;16.17;;
59468;SDS011;45277;52.768;18.262;2024-03-07T03:56:59;33.67;;;17.08;;
59468;SDS011;45277;52.768;18.262;2024-03-07T03:58:31;36.90;;;16.25;;
59468;SDS011;45277;52.768;18.262;2024-03-07T04:00:04;24.10;;;14.20;;
59468;SDS011;45277;52.768;18.262;2024-03-07T04:01:42;20.10;;;10.82;;
59468;SDS011;45277;52.768;18.262;2024-03-07T04:03:15;27.20;;;16.52;;
59468;SDS011;45277;52.768;18.262;2024-03-07T04:04:50;31.15;;;15.38;;
59468;SDS011;45277;52.768;18.262;2024-03-07T04:06:22;23.30;;;13.93;;
59468;SDS011;45277;52.768;18.262;2024-03-07T04:07:54;23.90;;;12.07;;
59468;SDS011;45277;52.768;18.262;2024-03-07T04:09:26;29.15;;;15.13;;
59468;SDS011;45277;52.768;18.262;2024-03-07T04:10:59;31.02;;;15.18;;
59468;SDS011;45277;52.768;18.262;2024-03-07T04:12:30;21.55;;;13.10;;
59468;SDS011;45277;52.768;18.262;2024-03-07T04:14:02;28.05;;;15.23;;
59468;SDS011;45277;52.768;18.262;2024-03-07T04:15:33;34.97;;;15.75;;
59468;SDS011;45277;52.768;18.262;2024-03-07T04:17:04;31.63;;;15.05;;
59468;SDS011;45277;52.768;18.262;2024-03-07T04:18:37;32.95;;;15.85;;
59468;SDS011;45277;52.768;18.262;2024-03-07T04:20:09;31.20;;;15.57;;
59468;SDS011;45277;52.768;18.262;2024-03-07T04:21:41;30.08;;;15.82;;
59468;SDS011;45277;52.768;18.262;2024-03-07T04:23:12;31.83;;;15.40;;
59468;SDS011;45277;52.768;18.262;2024-03-07T04:24:44;33.80;;;16.20;;
59468;SDS011;45277;52.768;18.262;2024-03-07T04:26:16;28.65;;;14.68;;
59468;SDS011;45277;52.768;18.262;2024-03-07T04:27:48;28.23;;;14.80;;
59468;SDS011;45277;52.768;18.262;2024-03-07T04:29:20;38.35;;;15.80;;
59468;SDS011;45277;52.768;18.262;2024-03-07T04:30:51;27.13;;;15.27;;
59468;SDS011;45277;52.768;18.262;2024-03-07T04:32:24;28.33;;;15.15;;
59468;SDS011;45277;52.768;18.262;2024-03-07T04:33:55;31.92;;;17.00;;
59468;SDS011;45277;52.768;18.262;2024-03-07T04:35:26;28.23;;;16.27;;
59468;SDS011;45277;52.768;18.262;2024-03-07T04:36:58;26.45;;;13.45;;
59468;SDS011;45277;52.768;18.262;2024-03-07T04:38:37;31.08;;;16.25;;
59468;SDS011;45277;52.768;18.262;2024-03-07T04:40:08;24.55;;;14.25;;
59468;SDS011;45277;52.768;18.262;2024-03-07T04:41:46;29.02;;;15.02;;
59468;SDS011;45277;52.768;18.262;2024-03-07T04:43:18;23.38;;;13.50;;
59468;SDS011;45277;52.768;18.262;2024-03-07T04:44:49;28.52;;;16.05;;
59468;SDS011;45277;52.768;18.262;2024-03-07T04:46:21;27.35;;;15.57;;
59468;SDS011;45277;52.768;18.262;2024-03-07T04:47:52;27.55;;;15.77;;
59468;SDS011;45277;52.768;18.262;2024-03-07T04:49:24;34.50;;;16.25;;
59468;SDS011;45277;52.768;18.262;2024-03-07T04:50:56;30.42;;;15.07;;
59468;SDS011;45277;52.768;18.262;2024-03-07T04:52:28;29.88;;;15.18;;
59468;SDS011;45277;52.768;18.262;2024-03-07T04:53:59;27.88;;;13.98;;
59468;SDS011;45277;52.768;18.262;2024-03-07T04:55:32;21.40;;;12.60;;
59468;SDS011;45277;52.768;18.262;2024-03-07T04:57:03;27.25;;;14.88;;
59468;SDS011;45277;52.768;18.262;2024-03-07T04:58:36;24.80;;;14.38;;
59468;SDS011;45277;52.768;18.262;2024-03-07T05:00:08;33.53;;;15.95;;
59468;SDS011;45277;52.768;18.262;2024-03-07T05:01:46;28.77;;;14.80;;
59468;SDS011;45277;52.768;18.262;2024-03-07T05:03:20;24.20;;;12.43;;
59468;SDS011;45277;52.768;18.262;2024-03-07T05:04:51;27.00;;;14.50;;
59468;SDS011;45277;52.768;18.262;2024-03-07T05:06:23;31.85;;;15.57;;
59468;SDS011;45277;52.768;18.262;2024-03-07T05:07:54;30.27;;;15.45;;
59468;SDS011;45277;52.768;18.262;2024-03-07T05:09:26;27.98;;;14.93;;
59468;SDS011;45277;52.768;18.262;2024-03-07T05:10:59;29.92;;;16.23;;
59468;SDS011;45277;52.768;18.262;2024-03-07T05:12:30;32.67;;;15.15;;
59468;SDS011;45277;52.768;18.262;2024-03-07T05:14:03;29.83;;;16.55;;
59468;SDS011;45277;52.768;18.262;2024-03-07T05:15:35;33.33;;;18.20;;
59468;SDS011;45277;52.768;18.262;2024-03-07T05:17:06;37.15;;;18.63;;
59468;SDS011;45277;52.768;18.262;2024-03-07T05:18:39;34.15;;;18.25;;
59468;SDS011;45277;52.768;18.262;2024-03-07T05:20:13;30.92;;;16.95;;
59468;SDS011;45277;52.768;18.262;2024-03-07T05:21:45;35.80;;;17.73;;
59468;SDS011;45277;52.768;18.262;2024-03-07T05:23:16;32.22;;;17.98;;
59468;SDS011;45277;52.768;18.262;2024-03-07T05:24:47;33.42;;;18.63;;
59468;SDS011;45277;52.768;18.262;2024-03-07T05:26:20;29.23;;;16.08;;
59468;SDS011;45277;52.768;18.262;2024-03-07T05:27:52;32.95;;;17.58;;
59468;SDS011;45277;52.768;18.262;2024-03-07T05:29:24;35.97;;;16.95;;
59468;SDS011;45277;52.768;18.262;2024-03-07T05:30:56;32.85;;;17.98;;
59468;SDS011;45277;52.768;18.262;2024-03-07T05:32:28;36.60;;;17.98;;
59468;SDS011;45277;52.768;18.262;2024-03-07T05:34:00;38.95;;;17.80;;
59468;SDS011;45277;52.768;18.262;2024-03-07T05:35:34;33.33;;;16.38;;
59468;SDS011;45277;52.768;18.262;2024-03-07T05:37:05;26.58;;;15.38;;
59468;SDS011;45277;52.768;18.262;2024-03-07T05:38:37;31.83;;;14.60;;
59468;SDS011;45277;52.768;18.262;2024-03-07T05:40:09;25.27;;;14.98;;
59468;SDS011;45277;52.768;18.262;2024-03-07T05:41:41;23.27;;;13.65;;
59468;SDS011;45277;52.768;18.262;2024-03-07T05:43:13;30.23;;;14.88;;
59468;SDS011;45277;52.768;18.262;2024-03-07T05:44:44;25.10;;;12.07;;
59468;SDS011;45277;52.768;18.262;2024-03-07T05:46:16;30.00;;;15.48;;
59468;SDS011;45277;52.768;18.262;2024-03-07T05:47:48;30.70;;;15.63;;
59468;SDS011;45277;52.768;18.262;2024-03-07T05:49:19;32.38;;;15.60;;
59468;SDS011;45277;52.768;18.262;2024-03-07T05:50:52;34.58;;;15.68;;
59468;SDS011;45277;52.768;18.262;2024-03-07T05:52:23;33.28;;;15.20;;
59468;SDS011;45277;52.768;18.262;2024-03-07T05:53:54;22.05;;;13.38;;
59468;SDS011;45277;52.768;18.262;2024-03-07T05:55:26;31.30;;;15.63;;
59468;SDS011;45277;52.768;18.262;2024-03-07T05:56:57;26.33;;;15.23;;
59468;SDS011;45277;52.768;18.262;2024-03-07T05:58:29;29.85;;;15.93;;
59468;SDS011;45277;52.768;18.262;2024-03-07T06:00:00;26.70;;;16.08;;
59468;SDS011;45277;52.768;18.262;2024-03-07T06:01:32;32.13;;;15.98;;
59468;SDS011;45277;52.768;18.262;2024-03-07T06:03:04;29.15;;;15.75;;
59468;SDS011;45277;52.768;18.262;2024-03-07T06:04:36;27.67;;;15.40;;
59468;SDS011;45277;52.768;18.262;2024-03-07T06:06:07;30.25;;;16.38;;
59468;SDS011;45277;52.768;18.262;2024-03-07T06:07:41;26.85;;;15.55;;
59468;SDS011;45277;52.768;18.262;2024-03-07T06:09:13;32.58;;;16.45;;
59468;SDS011;45277;52.768;18.262;2024-03-07T06:10:45;31.20;;;16.55;;
59468;SDS011;45277;52.768;18.262;2024-03-07T06:12:17;27.45;;;16.45;;
59468;SDS011;45277;52.768;18.262;2024-03-07T06:13:49;28.27;;;15.95;;
59468;SDS011;45277;52.768;18.262;2024-03-07T06:15:20;29.27;;;16.05;;
59468;SDS011;45277;52.768;18.262;2024-03-07T06:16:51;28.40;;;15.20;;
59468;SDS011;45277;52.768;18.262;2024-03-07T06:18:23;29.88;;;16.40;;
59468;SDS011;45277;52.768;18.262;2024-03-07T06:19:55;29.58;;;15.93;;
59468;SDS011;45277;52.768;18.262;2024-03-07T06:21:26;30.15;;;16.30;;
59468;SDS011;45277;52.768;18.262;2024-03-07T06:22:58;30.88;;;17.02;;
59468;SDS011;45277;52.768;18.262;2024-03-07T06:24:29;37.08;;;16.92;;
59468;SDS011;45277;52.768;18.262;2024-03-07T06:26:02;35.40;;;16.20;;
59468;SDS011;45277;52.768;18.262;2024-03-07T06:27:43;33.28;;;16.00;;
59468;SDS011;45277;52.768;18.262;2024-03-07T06:29:19;28.45;;;15.40;;
59468;SDS011;45277;52.768;18.262;2024-03-07T06:30:50;29.60;;;16.65;;
59468;SDS011;45277;52.768;18.262;2024-03-07T06:32:21;30.85;;;16.75;;
59468;SDS011;45277;52.768;18.262;2024-03-07T06:33:53;32.22;;;16.92;;
59468;SDS011;45277;52.768;18.262;2024-03-07T06:35:24;34.53;;;17.60;;
59468;SDS011;45277;52.768;18.262;2024-03-07T06:36:55;37.42;;;17.85;;
59468;SDS011;45277;52.768;18.262;2024-03-07T06:38:27;33.03;;;16.92;;
59468;SDS011;45277;52.768;18.262;2024-03-07T06:39:58;31.38;;;17.52;;
59468;SDS011;45277;52.768;18.262;2024-03-07T06:41:30;32.53;;;17.27;;
59468;SDS011;45277;52.768;18.262;2024-03-07T06:43:03;31.35;;;17.60;;
59468;SDS011;45277;52.768;18.262;2024-03-07T06:44:36;32.15;;;16.70;;
59468;SDS011;45277;52.768;18.262;2024-03-07T06:46:08;35.28;;;17.90;;
59468;SDS011;45277;52.768;18.262;2024-03-07T06:47:41;31.30;;;17.15;;
59468;SDS011;45277;52.768;18.262;2024-03-07T06:49:12;33.08;;;17.27;;
59468;SDS011;45277;52.768;18.262;2024-03-07T06:50:43;34.05;;;18.35;;
59468;SDS011;45277;52.768;18.262;2024-03-07T06:52:15;33.85;;;17.80;;
59468;SDS011;45277;52.768;18.262;2024-03-07T06:53:46;30.05;;;16.98;;
59468;SDS011;45277;52.768;18.262;2024-03-07T06:55:18;31.73;;;16.42;;
59468;SDS011;45277;52.768;18.262;2024-03-07T06:56:49;31.38;;;17.50;;
59468;SDS011;45277;52.768;18.262;2024-03-07T06:58:21;33.38;;;17.85;;
59468;SDS011;45277;52.768;18.262;2024-03-07T06:59:53;34.58;;;17.83;;
59468;SDS011;45277;52.768;18.262;2024-03-07T07:01:26;35.83;;;18.13;;
59468;SDS011;45277;52.768;18.262;2024-03-07T07:02:59;37.35;;;18.67;;
59468;SDS011;45277;52.768;18.262;2024-03-07T07:04:34;41.35;;;19.00;;
59468;SDS011;45277;52.768;18.262;2024-03-07T07:06:24;40.22;;;18.70;;
59468;SDS011;45277;52.768;18.262;2024-03-07T07:07:56;44.47;;;21.63;;
59468;SDS011;45277;52.768;18.262;2024-03-07T07:09:27;39.53;;;21.30;;
59468;SDS011;45277;52.768;18.262;2024-03-07T07:10:59;31.25;;;17.17;;
59468;SDS011;45277;52.768;18.262;2024-03-07T07:12:30;33.13;;;16.40;;
59468;SDS011;45277;52.768;18.262;2024-03-07T07:14:01;33.30;;;18.27;;
59468;SDS011;45277;52.768;18.262;2024-03-07T07:15:33;31.58;;;18.33;;
59468;SDS011;45277;52.768;18.262;2024-03-07T07:17:04;31.38;;;17.70;;
59468;SDS011;45277;52.768;18.262;2024-03-07T07:18:36;29.73;;;17.08;;
59468;SDS011;45277;52.768;18.262;2024-03-07T07:20:09;32.75;;;17.80;;
59468;SDS011;45277;52.768;18.262;2024-03-07T07:21:40;31.33;;;18.48;;
59468;SDS011;45277;52.768;18.262;2024-03-07T07:23:12;31.23;;;17.10;;
59468;SDS011;45277;52.768;18.262;2024-03-07T07:24:44;30.25;;;18.13;;
59468;SDS011;45277;52.768;18.262;2024-03-07T07:26:15;32.05;;;17.33;;
59468;SDS011;45277;52.768;18.262;2024-03-07T07:27:47;29.13;;;15.68;;
59468;SDS011;45277;52.768;18.262;2024-03-07T07:29:19;31.83;;;16.90;;
59468;SDS011;45277;52.768;18.262;2024-03-07T07:30:51;31.20;;;17.02;;
59468;SDS011;45277;52.768;18.262;2024-03-07T07:32:22;29.73;;;16.75;;
59468;SDS011;45277;52.768;18.262;2024-03-07T07:33:53;31.70;;;17.98;;
59468;SDS011;45277;52.768;18.262;2024-03-07T07:35:25;32.45;;;17.98;;
59468;SDS011;45277;52.768;18.262;2024-03-07T07:36:56;30.33;;;18.23;;
59468;SDS011;45277;52.768;18.262;2024-03-07T07:38:28;33.92;;;18.48;;
59468;SDS011;45277;52.768;18.262;2024-03-07T07:40:00;34.40;;;18.48;;
59468;SDS011;45277;52.768;18.262;2024-03-07T07:41:32;28.25;;;16.27;;
59468;SDS011;45277;52.768;18.262;2024-03-07T07:43:04;29.92;;;15.35;;
59468;SDS011;45277;52.768;18.262;2024-03-07T07:44:36;27.05;;;14.73;;
59468;SDS011;45277;52.768;18.262;2024-03-07T07:46:07;26.38;;;16.40;;
59468;SDS011;45277;52.768;18.262;2024-03-07T07:47:39;29.98;;;15.90;;
59468;SDS011;45277;52.768;18.262;2024-03-07T07:49:12;30.00;;;16.10;;
59468;SDS011;45277;52.768;18.262;2024-03-07T07:50:43;28.88;;;16.08;;
59468;SDS011;45277;52.768;18.262;2024-03-07T07:52:14;27.30;;;15.10;;
59468;SDS011;45277;52.768;18.262;2024-03-07T07:53:46;31.10;;;15.15;;
59468;SDS011;45277;52.768;18.262;2024-03-07T07:55:17;28.25;;;14.63;;
59468;SDS011;45277;52.768;18.262;2024-03-07T07:56:50;26.90;;;14.55;;
59468;SDS011;45277;52.768;18.262;2024-03-07T07:58:21;23.10;;;13.85;;
59468;SDS011;45277;52.768;18.262;2024-03-07T07:59:53;22.30;;;14.13;;
59468;SDS011;45277;52.768;18.262;2024-03-07T08:01:24;24.67;;;14.98;;
59468;SDS011;45277;52.768;18.262;2024-03-07T08:02:56;24.83;;;13.65;;
59468;SDS011;45277;52.768;18.262;2024-03-07T08:04:32;25.55;;;14.88;;
59468;SDS011;45277;52.768;18.262;2024-03-07T08:06:04;29.33;;;15.38;;
59468;SDS011;45277;52.768;18.262;2024-03-07T08:07:35;28.23;;;15.63;;
59468;SDS011;45277;52.768;18.262;2024-03-07T08:09:07;24.27;;;13.50;;
59468;SDS011;45277;52.768;18.262;2024-03-07T08:10:40;26.45;;;14.02;;
59468;SDS011;45277;52.768;18.262;2024-03-07T08:12:16;22.40;;;13.30;;
59468;SDS011;45277;52.768;18.262;2024-03-07T08:13:47;26.38;;;14.75;;
59468;SDS011;45277;52.768;18.262;2024-03-07T08:15:21;24.02;;;13.27;;
59468;SDS011;45277;52.768;18.262;2024-03-07T08:16:52;26.27;;;14.13;;
59468;SDS011;45277;52.768;18.262;2024-03-07T08:18:24;25.92;;;13.65;;
59468;SDS011;45277;52.768;18.262;2024-03-07T08:19:55;27.35;;;14.02;;
59468;SDS011;45277;52.768;18.262;2024-03-07T08:21:26;24.00;;;13.43;;
59468;SDS011;45277;52.768;18.262;2024-03-07T08:22:58;22.45;;;13.98;;
59468;SDS011;45277;52.768;18.262;2024-03-07T08:24:29;23.33;;;13.40;;
59468;SDS011;45277;52.768;18.262;2024-03-07T08:26:01;26.95;;;14.90;;
59468;SDS011;45277;52.768;18.262;2024-03-07T08:27:32;23.17;;;13.85;;
59468;SDS011;45277;52.768;18.262;2024-03-07T08:29:04;25.15;;;13.85;;
59468;SDS011;45277;52.768;18.262;2024-03-07T08:30:35;22.95;;;13.90;;
59468;SDS011;45277;52.768;18.262;2024-03-07T08:32:07;25.15;;;13.20;;
59468;SDS011;45277;52.768;18.262;2024-03-07T08:33:38;22.23;;;12.60;;
59468;SDS011;45277;52.768;18.262;2024-03-07T08:35:10;22.15;;;12.65;;
59468;SDS011;45277;52.768;18.262;2024-03-07T08:36:43;24.00;;;13.25;;
59468;SDS011;45277;52.768;18.262;2024-03-07T08:38:14;23.25;;;13.20;;
59468;SDS011;45277;52.768;18.262;2024-03-07T08:39:45;24.13;;;13.30;;
59468;SDS011;45277;52.768;18.262;2024-03-07T08:41:17;20.83;;;12.30;;
59468;SDS011;45277;52.768;18.262;2024-03-07T08:42:49;25.40;;;13.48;;
59468;SDS011;45277;52.768;18.262;2024-03-07T08:44:22;21.13;;;12.13;;
59468;SDS011;45277;52.768;18.262;2024-03-07T08:45:53;21.98;;;11.98;;
59468;SDS011;45277;52.768;18.262;2024-03-07T08:47:25;20.23;;;12.40;;
59468;SDS011;45277;52.768;18.262;2024-03-07T08:48:56;23.33;;;12.73;;
59468;SDS011;45277;52.768;18.262;2024-03-07T08:50:27;23.90;;;12.43;;